Agios Rafail — SY4304 — position and weather

sailwx.info

Track history (hours):
 
Tides and Currents Weather Stations Pressure Air Temp Water Temp Dewpoint Dewpoint Depression Visibility Wind Speed Wind Dir Waves Ship Positions

Agios Rafail

Last reported at 2018-Feb-24 13:44 UTC. Time now 2018-Feb-24 15:33 UTC.
Position N 40°47' E 024°42'.

Length 80 m; draft 2.4 m.

Type: Passenger vessel. MMSI: 237740500.

Date/timePositionNaut miles runAvg speedWind from/ knotsBaromVisibWave heightAir tempDewpointWater temp
2018-Feb-24 13:44N 40°47' E 024°42'0 2.1
2018-Feb-24 13:30N 40°47' E 024°42'4 7.1
2018-Feb-24 13:00N 40°51' E 024°41'1 2.2
2018-Feb-24 12:30N 40°51' E 024°42'2 3.3
2018-Feb-24 12:01N 40°50' E 024°41'4 7.0
2018-Feb-24 11:30N 40°47' E 024°42'0 0.0
2018-Feb-24 11:00N 40°47' E 024°42'0 0.0
2018-Feb-24 08:00N 40°47' E 024°42'0 0.0
2018-Feb-24 07:30N 40°47' E 024°42'0 0.0
2018-Feb-24 07:00N 40°47' E 024°42'0 0.4
2018-Feb-24 06:30N 40°47' E 024°42'2 4.2
2018-Feb-24 06:00N 40°49' E 024°42'3 5.1
2018-Feb-24 05:31N 40°51' E 024°42'0 0.0
2018-Feb-23 18:02N 40°51' E 024°42'0 0.1
2018-Feb-23 17:59N 40°51' E 024°42'1 2.9
2018-Feb-23 17:30N 40°50' E 024°41'4 7.3
2018-Feb-23 17:00N 40°47' E 024°42'0 0.0
2018-Feb-23 16:30N 40°47' E 024°42'0 0.0
2018-Feb-23 16:00N 40°47' E 024°42'2 4.8
2018-Feb-23 15:30N 40°49' E 024°41'2 4.6
2018-Feb-23 15:00N 40°51' E 024°42'2 3.4
2018-Feb-23 14:30N 40°50' E 024°41'4 7.1
2018-Feb-23 14:00N 40°47' E 024°42'0 0.0
2018-Feb-23 05:25N 40°47' E 024°43'0 0.0
2018-Feb-23 04:55N 40°47' E 024°43'0 0.0
2018-Feb-22 19:23N 40°47' E 024°43'0 0.0
2018-Feb-22 18:59N 40°47' E 024°43'0 0.0
2018-Feb-22 18:30N 40°47' E 024°43'2 4.2
2018-Feb-22 18:00N 40°49' E 024°42'3 5.3
2018-Feb-22 17:30N 40°51' E 024°42'0 0.0
2018-Feb-22 17:00N 40°51' E 024°42'1 3.0
2018-Feb-22 16:30N 40°50' E 024°41'4 7.3
2018-Feb-22 16:00N 40°47' E 024°42'0 0.0
2018-Feb-22 15:29N 40°47' E 024°42'0 0.0
2018-Feb-22 15:00N 40°47' E 024°42'2 4.4
2018-Feb-22 14:31N 40°49' E 024°42'3 5.1
2018-Feb-22 14:00N 40°51' E 024°42'1 2.8
2018-Feb-22 13:30N 40°50' E 024°41'4 7.6
2018-Feb-22 13:01N 40°47' E 024°42'0 0.5
2018-Feb-22 12:30N 40°47' E 024°43'0 0.1
2018-Feb-22 11:55N 40°47' E 024°43'0 0.0
2018-Feb-21 11:27N 40°47' E 024°43'1 1.2
2018-Feb-21 11:00N 40°47' E 024°42'3 6.9
2018-Feb-21 10:30N 40°51' E 024°41'1 2.1
2018-Feb-21 09:59N 40°51' E 024°42'2 3.8
2018-Feb-21 09:30N 40°50' E 024°41'3 7.0
2018-Feb-21 09:01N 40°47' E 024°42'1 1.2
2018-Feb-21 08:30N 40°47' E 024°42'3 6.9
2018-Feb-21 08:00N 40°51' E 024°41'1 2.3
2018-Feb-21 07:30N 40°51' E 024°42'2 3.9
2018-Feb-21 07:00N 40°50' E 024°40'4 7.1
2018-Feb-21 06:30N 40°47' E 024°42'0 0.0
2018-Feb-21 05:57N 40°47' E 024°42'0 0.0
2018-Feb-21 05:27N 40°47' E 024°42'0 0.0
2018-Feb-21 05:00N 40°47' E 024°42'3 5.2
2018-Feb-21 04:30N 40°49' E 024°41'2 4.5
2018-Feb-21 04:00N 40°51' E 024°42'0 0.0
2018-Feb-20 16:00N 40°51' E 024°42'2 3.7
2018-Feb-20 15:30N 40°50' E 024°41'4 7.0
2018-Feb-20 15:00N 40°47' E 024°42'0 0.0
2018-Feb-20 14:30N 40°47' E 024°42'0 0.0
2018-Feb-20 14:00N 40°47' E 024°42'1 1.0
2018-Feb-20 13:30N 40°47' E 024°42'4 7.3
2018-Feb-20 13:00N 40°51' E 024°41'1 2.2
2018-Feb-20 12:30N 40°51' E 024°42'2 3.4
2018-Feb-20 12:00N 40°50' E 024°41'4 7.3
2018-Feb-20 11:30N 40°47' E 024°42'0 0.0
2018-Feb-20 10:49N 40°47' E 024°42'0 0.0
2018-Feb-20 10:28N 40°47' E 024°42'0 0.0
2018-Feb-20 09:58N 40°47' E 024°42'0 0.0
2018-Feb-20 09:28N 40°47' E 024°42'0 0.8
2018-Feb-20 09:00N 40°47' E 024°42'4 7.2
2018-Feb-20 08:30N 40°51' E 024°41'1 2.3
2018-Feb-20 08:00N 40°51' E 024°42'2 3.7
2018-Feb-20 07:30N 40°50' E 024°41'3 6.9
2018-Feb-20 07:00N 40°47' E 024°42'0 0.0
2018-Feb-20 06:30N 40°47' E 024°42'2 4.1
2018-Feb-20 06:00N 40°49' E 024°41'3 5.5
2018-Feb-20 05:30N 40°51' E 024°42'0 0.0
2018-Feb-20 05:00N 40°51' E 024°42'0 0.0
2018-Feb-19 18:11N 40°51' E 024°42'0 0.1
2018-Feb-19 18:00N 40°51' E 024°42'2 4.7
2018-Feb-19 17:30N 40°49' E 024°41'2 4.4
2018-Feb-19 16:57N 40°47' E 024°42'0 0.0
2018-Feb-19 16:30N 40°47' E 024°42'0 0.3
2018-Feb-19 16:00N 40°47' E 024°42'2 4.3
2018-Feb-19 15:30N 40°49' E 024°41'2 5.1
2018-Feb-19 15:00N 40°51' E 024°42'2 3.7
2018-Feb-19 14:30N 40°50' E 024°40'3 7.0
2018-Feb-19 14:00N 40°47' E 024°42'0 0.0
2018-Feb-19 13:29N 40°47' E 024°42'1 1.8
2018-Feb-19 13:00N 40°48' E 024°42'3 6.5
2018-Feb-19 12:30N 40°51' E 024°41'1 2.2
2018-Feb-19 12:00N 40°51' E 024°42'1 3.0
2018-Feb-19 11:30N 40°50' E 024°41'4 7.5
2018-Feb-19 11:00N 40°47' E 024°42'0 0.0
2018-Feb-19 10:30N 40°47' E 024°42'2 4.3
2018-Feb-19 10:00N 40°49' E 024°42'3 5.1
2018-Feb-19 09:30N 40°51' E 024°42'0 0.6
2018-Feb-19 09:00N 40°52' E 024°42'3 6.4
2018-Feb-19 08:30N 40°48' E 024°42'2 3.3
2018-Feb-19 08:00N 40°47' E 024°42'0 0.0
2018-Feb-19 07:27N 40°47' E 024°42'0 0.0
2018-Feb-18 13:45N 40°47' E 024°42'0 0.9
2018-Feb-18 13:30N 40°47' E 024°42'4 7.8
2018-Feb-18 13:00N 40°51' E 024°41'1 2.0
2018-Feb-18 12:28N 40°51' E 024°42'1 3.0
2018-Feb-18 12:00N 40°50' E 024°41'4 7.6
2018-Feb-18 11:30N 40°47' E 024°42'0 0.0
2018-Feb-18 10:59N 40°47' E 024°42'0 0.0
2018-Feb-17 11:20N 40°47' E 024°42'0 1.2
2018-Feb-17 11:00N 40°47' E 024°42'4 7.3
2018-Feb-17 10:30N 40°51' E 024°41'1 2.2
2018-Feb-17 10:00N 40°51' E 024°42'1 2.8
2018-Feb-17 09:30N 40°51' E 024°41'4 7.6
2018-Feb-17 09:00N 40°47' E 024°42'0 0.0
2018-Feb-17 08:30N 40°47' E 024°42'0 0.0
2018-Feb-17 08:00N 40°47' E 024°42'0 0.0
2018-Feb-17 07:30N 40°47' E 024°42'0 0.3
2018-Feb-17 07:01N 40°47' E 024°42'4 7.9
2018-Feb-17 06:30N 40°51' E 024°41'1 2.3
2018-Feb-17 06:00N 40°51' E 024°42'1 2.5
2018-Feb-17 05:30N 40°51' E 024°41'4 8.0
2018-Feb-17 05:00N 40°47' E 024°42'2 4.4
2018-Feb-17 04:30N 40°49' E 024°42'3 5.0
2018-Feb-17 04:01N 40°51' E 024°42'0 0.0
2018-Feb-16 15:56N 40°51' E 024°42'1 3.4
2018-Feb-16 15:30N 40°50' E 024°41'4 7.7
2018-Feb-16 15:00N 40°47' E 024°42'0 0.0
2018-Feb-16 14:29N 40°47' E 024°42'1 1.2
2018-Feb-16 14:00N 40°47' E 024°42'4 7.1
2018-Feb-16 13:30N 40°51' E 024°41'1 2.3
2018-Feb-16 13:00N 40°52' E 024°42'3 6.0
2018-Feb-16 12:30N 40°49' E 024°41'2 3.7
2018-Feb-16 12:00N 40°47' E 024°42'2 4.8
2018-Feb-16 11:30N 40°49' E 024°42'2 4.4
2018-Feb-16 10:59N 40°51' E 024°42'0 0.3
2018-Feb-16 10:30N 40°52' E 024°42'3 5.9
2018-Feb-16 10:00N 40°49' E 024°42'2 3.7
2018-Feb-16 09:31N 40°47' E 024°42'0 0.5
2018-Feb-16 08:59N 40°47' E 024°43'0 0.0
2018-Feb-15 13:03N 40°47' E 024°43'0 0.1
2018-Feb-15 12:56N 40°47' E 024°43'1 1.8
2018-Feb-15 12:30N 40°48' E 024°42'3 6.6
2018-Feb-15 12:01N 40°51' E 024°41'1 2.3
2018-Feb-15 11:31N 40°51' E 024°42'2 3.2
2018-Feb-15 11:01N 40°50' E 024°41'4 7.5
2018-Feb-15 10:30N 40°47' E 024°42'0 0.0
2018-Feb-15 09:55N 40°47' E 024°42'1 2.2
2018-Feb-15 09:30N 40°48' E 024°42'3 6.9
2018-Feb-15 09:00N 40°51' E 024°41'1 2.1
2018-Feb-15 08:30N 40°51' E 024°42'1 2.9
2018-Feb-15 08:00N 40°50' E 024°41'4 7.7
2018-Feb-15 07:30N 40°47' E 024°42'0 0.0
2018-Feb-15 07:00N 40°47' E 024°42'0 0.0
2018-Feb-14 13:54N 40°47' E 024°42'  
Track history (hours):
 
Tides and Currents Weather Stations Pressure Air Temp Water Temp Dewpoint Dewpoint Depression Visibility Wind Speed Wind Dir Waves Ship Positions

Agios Rafail

Last reported at 2018-Feb-24 13:44 UTC. Time now 2018-Feb-24 15:33 UTC.
Position N 40°47' E 024°42'.

Length 80 m; draft 2.4 m.

Type: Passenger vessel. MMSI: 237740500.

Date/timePositionNaut miles runAvg speedWind from/ knotsBaromVisibWave heightAir tempDewpointWater temp
2018-Feb-24 13:44N 40°47' E 024°42'0 2.1
2018-Feb-24 13:30N 40°47' E 024°42'4 7.1
2018-Feb-24 13:00N 40°51' E 024°41'1 2.2
2018-Feb-24 12:30N 40°51' E 024°42'2 3.3
2018-Feb-24 12:01N 40°50' E 024°41'4 7.0
2018-Feb-24 11:30N 40°47' E 024°42'0 0.0
2018-Feb-24 11:00N 40°47' E 024°42'0 0.0
2018-Feb-24 08:00N 40°47' E 024°42'0 0.0
2018-Feb-24 07:30N 40°47' E 024°42'0 0.0
2018-Feb-24 07:00N 40°47' E 024°42'0 0.4
2018-Feb-24 06:30N 40°47' E 024°42'2 4.2
2018-Feb-24 06:00N 40°49' E 024°42'3 5.1
2018-Feb-24 05:31N 40°51' E 024°42'0 0.0
2018-Feb-23 18:02N 40°51' E 024°42'0 0.1
2018-Feb-23 17:59N 40°51' E 024°42'1 2.9
2018-Feb-23 17:30N 40°50' E 024°41'4 7.3
2018-Feb-23 17:00N 40°47' E 024°42'0 0.0
2018-Feb-23 16:30N 40°47' E 024°42'0 0.0
2018-Feb-23 16:00N 40°47' E 024°42'2 4.8
2018-Feb-23 15:30N 40°49' E 024°41'2 4.6
2018-Feb-23 15:00N 40°51' E 024°42'2 3.4
2018-Feb-23 14:30N 40°50' E 024°41'4 7.1
2018-Feb-23 14:00N 40°47' E 024°42'0 0.0
2018-Feb-23 05:25N 40°47' E 024°43'0 0.0
2018-Feb-23 04:55N 40°47' E 024°43'0 0.0
2018-Feb-22 19:23N 40°47' E 024°43'0 0.0
2018-Feb-22 18:59N 40°47' E 024°43'0 0.0
2018-Feb-22 18:30N 40°47' E 024°43'2 4.2
2018-Feb-22 18:00N 40°49' E 024°42'3 5.3
2018-Feb-22 17:30N 40°51' E 024°42'0 0.0
2018-Feb-22 17:00N 40°51' E 024°42'1 3.0
2018-Feb-22 16:30N 40°50' E 024°41'4 7.3
2018-Feb-22 16:00N 40°47' E 024°42'0 0.0
2018-Feb-22 15:29N 40°47' E 024°42'0 0.0
2018-Feb-22 15:00N 40°47' E 024°42'2 4.4
2018-Feb-22 14:31N 40°49' E 024°42'3 5.1
2018-Feb-22 14:00N 40°51' E 024°42'1 2.8
2018-Feb-22 13:30N 40°50' E 024°41'4 7.6
2018-Feb-22 13:01N 40°47' E 024°42'0 0.5
2018-Feb-22 12:30N 40°47' E 024°43'0 0.1
2018-Feb-22 11:55N 40°47' E 024°43'0 0.0
2018-Feb-21 11:27N 40°47' E 024°43'1 1.2
2018-Feb-21 11:00N 40°47' E 024°42'3 6.9
2018-Feb-21 10:30N 40°51' E 024°41'1 2.1
2018-Feb-21 09:59N 40°51' E 024°42'2 3.8
2018-Feb-21 09:30N 40°50' E 024°41'3 7.0
2018-Feb-21 09:01N 40°47' E 024°42'1 1.2
2018-Feb-21 08:30N 40°47' E 024°42'3 6.9
2018-Feb-21 08:00N 40°51' E 024°41'1 2.3
2018-Feb-21 07:30N 40°51' E 024°42'2 3.9
2018-Feb-21 07:00N 40°50' E 024°40'4 7.1
2018-Feb-21 06:30N 40°47' E 024°42'0 0.0
2018-Feb-21 05:57N 40°47' E 024°42'0 0.0
2018-Feb-21 05:27N 40°47' E 024°42'0 0.0
2018-Feb-21 05:00N 40°47' E 024°42'3 5.2
2018-Feb-21 04:30N 40°49' E 024°41'2 4.5
2018-Feb-21 04:00N 40°51' E 024°42'0 0.0
2018-Feb-20 16:00N 40°51' E 024°42'2 3.7
2018-Feb-20 15:30N 40°50' E 024°41'4 7.0
2018-Feb-20 15:00N 40°47' E 024°42'0 0.0
2018-Feb-20 14:30N 40°47' E 024°42'0 0.0
2018-Feb-20 14:00N 40°47' E 024°42'1 1.0
2018-Feb-20 13:30N 40°47' E 024°42'4 7.3
2018-Feb-20 13:00N 40°51' E 024°41'1 2.2
2018-Feb-20 12:30N 40°51' E 024°42'2 3.4
2018-Feb-20 12:00N 40°50' E 024°41'4 7.3
2018-Feb-20 11:30N 40°47' E 024°42'0 0.0
2018-Feb-20 10:49N 40°47' E 024°42'0 0.0
2018-Feb-20 10:28N 40°47' E 024°42'0 0.0
2018-Feb-20 09:58N 40°47' E 024°42'0 0.0
2018-Feb-20 09:28N 40°47' E 024°42'0 0.8
2018-Feb-20 09:00N 40°47' E 024°42'4 7.2
2018-Feb-20 08:30N 40°51' E 024°41'1 2.3
2018-Feb-20 08:00N 40°51' E 024°42'2 3.7
2018-Feb-20 07:30N 40°50' E 024°41'3 6.9
2018-Feb-20 07:00N 40°47' E 024°42'0 0.0
2018-Feb-20 06:30N 40°47' E 024°42'2 4.1
2018-Feb-20 06:00N 40°49' E 024°41'3 5.5
2018-Feb-20 05:30N 40°51' E 024°42'0 0.0
2018-Feb-20 05:00N 40°51' E 024°42'0 0.0
2018-Feb-19 18:11N 40°51' E 024°42'0 0.1
2018-Feb-19 18:00N 40°51' E 024°42'2 4.7
2018-Feb-19 17:30N 40°49' E 024°41'2 4.4
2018-Feb-19 16:57N 40°47' E 024°42'0 0.0
2018-Feb-19 16:30N 40°47' E 024°42'0 0.3
2018-Feb-19 16:00N 40°47' E 024°42'2 4.3
2018-Feb-19 15:30N 40°49' E 024°41'2 5.1
2018-Feb-19 15:00N 40°51' E 024°42'2 3.7
2018-Feb-19 14:30N 40°50' E 024°40'3 7.0
2018-Feb-19 14:00N 40°47' E 024°42'0 0.0
2018-Feb-19 13:29N 40°47' E 024°42'1 1.8
2018-Feb-19 13:00N 40°48' E 024°42'3 6.5
2018-Feb-19 12:30N 40°51' E 024°41'1 2.2
2018-Feb-19 12:00N 40°51' E 024°42'1 3.0
2018-Feb-19 11:30N 40°50' E 024°41'4 7.5
2018-Feb-19 11:00N 40°47' E 024°42'0 0.0
2018-Feb-19 10:30N 40°47' E 024°42'2 4.3
2018-Feb-19 10:00N 40°49' E 024°42'3 5.1
2018-Feb-19 09:30N 40°51' E 024°42'0 0.6
2018-Feb-19 09:00N 40°52' E 024°42'3 6.4
2018-Feb-19 08:30N 40°48' E 024°42'2 3.3
2018-Feb-19 08:00N 40°47' E 024°42'0 0.0
2018-Feb-19 07:27N 40°47' E 024°42'0 0.0
2018-Feb-18 13:45N 40°47' E 024°42'0 0.9
2018-Feb-18 13:30N 40°47' E 024°42'4 7.8
2018-Feb-18 13:00N 40°51' E 024°41'1 2.0
2018-Feb-18 12:28N 40°51' E 024°42'1 3.0
2018-Feb-18 12:00N 40°50' E 024°41'4 7.6
2018-Feb-18 11:30N 40°47' E 024°42'0 0.0
2018-Feb-18 10:59N 40°47' E 024°42'0 0.0
2018-Feb-17 11:20N 40°47' E 024°42'0 1.2
2018-Feb-17 11:00N 40°47' E 024°42'4 7.3
2018-Feb-17 10:30N 40°51' E 024°41'1 2.2
2018-Feb-17 10:00N 40°51' E 024°42'1 2.8
2018-Feb-17 09:30N 40°51' E 024°41'4 7.6
2018-Feb-17 09:00N 40°47' E 024°42'0 0.0
2018-Feb-17 08:30N 40°47' E 024°42'0 0.0
2018-Feb-17 08:00N 40°47' E 024°42'0 0.0
2018-Feb-17 07:30N 40°47' E 024°42'0 0.3
2018-Feb-17 07:01N 40°47' E 024°42'4 7.9
2018-Feb-17 06:30N 40°51' E 024°41'1 2.3
2018-Feb-17 06:00N 40°51' E 024°42'1 2.5
2018-Feb-17 05:30N 40°51' E 024°41'4 8.0
2018-Feb-17 05:00N 40°47' E 024°42'2 4.4
2018-Feb-17 04:30N 40°49' E 024°42'3 5.0
2018-Feb-17 04:01N 40°51' E 024°42'0 0.0
2018-Feb-16 15:56N 40°51' E 024°42'1 3.4
2018-Feb-16 15:30N 40°50' E 024°41'4 7.7
2018-Feb-16 15:00N 40°47' E 024°42'0 0.0
2018-Feb-16 14:29N 40°47' E 024°42'1 1.2
2018-Feb-16 14:00N 40°47' E 024°42'4 7.1
2018-Feb-16 13:30N 40°51' E 024°41'1 2.3
2018-Feb-16 13:00N 40°52' E 024°42'3 6.0
2018-Feb-16 12:30N 40°49' E 024°41'2 3.7
2018-Feb-16 12:00N 40°47' E 024°42'2 4.8
2018-Feb-16 11:30N 40°49' E 024°42'2 4.4
2018-Feb-16 10:59N 40°51' E 024°42'0 0.3
2018-Feb-16 10:30N 40°52' E 024°42'3 5.9
2018-Feb-16 10:00N 40°49' E 024°42'2 3.7
2018-Feb-16 09:31N 40°47' E 024°42'0 0.5
2018-Feb-16 08:59N 40°47' E 024°43'0 0.0
2018-Feb-15 13:03N 40°47' E 024°43'0 0.1
2018-Feb-15 12:56N 40°47' E 024°43'1 1.8
2018-Feb-15 12:30N 40°48' E 024°42'3 6.6
2018-Feb-15 12:01N 40°51' E 024°41'1 2.3
2018-Feb-15 11:31N 40°51' E 024°42'2 3.2
2018-Feb-15 11:01N 40°50' E 024°41'4 7.5
2018-Feb-15 10:30N 40°47' E 024°42'0 0.0
2018-Feb-15 09:55N 40°47' E 024°42'1 2.2
2018-Feb-15 09:30N 40°48' E 024°42'3 6.9
2018-Feb-15 09:00N 40°51' E 024°41'1 2.1
2018-Feb-15 08:30N 40°51' E 024°42'1 2.9
2018-Feb-15 08:00N 40°50' E 024°41'4 7.7
2018-Feb-15 07:30N 40°47' E 024°42'0 0.0
2018-Feb-15 07:00N 40°47' E 024°42'0 0.0
2018-Feb-14 13:54N 40°47' E 024°42'  

Dump ship's entire track history